createdAt,value
2019-06-01T00:01:01.405Z,5.43
2019-06-01T00:03:05.360Z,6.90
2019-06-01T00:05:09.447Z,5.43
2019-06-01T00:07:13.377Z,6.10
2019-06-01T00:09:17.250Z,6.60
2019-06-01T00:11:21.150Z,6.10
2019-06-01T00:13:25.064Z,6.67
2019-06-01T00:15:28.962Z,5.87
2019-06-01T00:17:32.848Z,5.80
2019-06-01T00:19:36.776Z,7.87
2019-06-01T00:21:41.170Z,6.70
2019-06-01T00:23:46.233Z,6.43
2019-06-01T00:25:50.527Z,8.40
2019-06-01T00:27:54.417Z,6.47
2019-06-01T00:29:58.373Z,7.60
2019-06-01T00:32:02.264Z,5.50
2019-06-01T00:34:06.156Z,5.90
2019-06-01T00:36:10.079Z,5.77
2019-06-01T00:38:13.977Z,5.00
2019-06-01T00:40:17.907Z,6.37
2019-06-01T00:42:21.784Z,5.73
2019-06-01T00:44:25.685Z,9.47
2019-06-01T00:46:29.643Z,8.40
2019-06-01T00:48:33.560Z,7.73
2019-06-01T00:50:37.425Z,7.50
2019-06-01T00:52:41.414Z,6.53
2019-06-01T00:54:45.347Z,6.63
2019-06-01T00:56:49.714Z,8.17
2019-06-01T00:58:53.973Z,6.40
2019-06-01T01:00:58.100Z,7.00
2019-06-01T01:03:02.023Z,8.67
2019-06-01T01:05:15.417Z,6.15
2019-06-01T01:07:19.355Z,6.73
2019-06-01T01:09:23.269Z,7.27
2019-06-01T01:11:27.167Z,8.53
2019-06-01T01:13:31.112Z,6.57
2019-06-01T01:15:35.588Z,9.80
2019-06-01T01:17:39.465Z,7.30
2019-06-01T01:19:43.416Z,7.63
2019-06-01T01:21:47.965Z,7.10
2019-06-01T01:23:53.153Z,7.23
2019-06-01T01:25:57.461Z,6.77
2019-06-01T01:28:01.371Z,7.93
2019-06-01T01:30:06.902Z,6.47
2019-06-01T01:32:10.781Z,8.37
2019-06-01T01:34:14.654Z,10.10
2019-06-01T01:36:18.603Z,7.70
2019-06-01T01:38:23.401Z,7.70
2019-06-01T01:40:28.317Z,8.20
2019-06-01T01:42:32.222Z,8.07
2019-06-01T01:44:36.129Z,8.43
2019-06-01T01:46:48.625Z,8.30
2019-06-01T01:48:54.164Z,10.80
2019-06-01T01:50:58.597Z,9.00
2019-06-01T01:53:03.344Z,9.10
2019-06-01T01:55:07.535Z,8.07
2019-06-01T01:57:11.478Z,12.83
2019-06-01T01:59:15.393Z,11.83
2019-06-01T02:01:22.855Z,9.70
2019-06-01T02:03:24.935Z,8.20
2019-06-01T02:05:28.824Z,9.40
2019-06-01T02:07:32.733Z,8.27
2019-06-01T02:09:36.651Z,10.50
2019-06-01T02:11:40.559Z,9.33
2019-06-01T02:13:44.445Z,12.10
2019-06-01T02:15:48.393Z,9.47
2019-06-01T02:17:52.270Z,7.53
2019-06-01T02:19:56.225Z,9.73
2019-06-01T02:22:00.689Z,7.37
2019-06-01T02:24:04.623Z,10.40
2019-06-01T02:26:08.554Z,10.63
2019-06-01T02:28:12.424Z,7.33
2019-06-01T02:30:16.801Z,11.13
2019-06-01T02:32:20.766Z,11.50
2019-06-01T02:34:24.664Z,11.23
2019-06-01T02:36:28.830Z,11.40
2019-06-01T02:38:32.928Z,9.43
2019-06-01T02:40:38.952Z,12.70
2019-06-01T02:42:43.216Z,9.63
2019-06-01T02:44:47.218Z,11.97
2019-06-01T02:46:51.312Z,11.03
2019-06-01T02:48:55.552Z,7.20
2019-06-01T02:50:59.941Z,16.20
2019-06-01T02:53:05.679Z,9.33
2019-06-01T02:55:19.983Z,10.97
2019-06-01T02:57:24.467Z,10.07
2019-06-01T02:59:28.572Z,11.97
2019-06-01T03:01:37.328Z,11.47
2019-06-01T03:03:42.075Z,10.50
2019-06-01T03:05:47.650Z,11.33
2019-06-01T03:07:52.764Z,12.83
2019-06-01T03:09:56.772Z,10.47
2019-06-01T03:12:04.281Z,9.03
2019-06-01T03:14:11.012Z,11.13
2019-06-01T03:16:16.592Z,14.00
2019-06-01T03:18:22.845Z,11.63
2019-06-01T03:20:28.742Z,13.53
2019-06-01T03:22:33.640Z,10.73
2019-06-01T03:24:37.996Z,8.77
2019-06-01T03:26:44.153Z,12.67
2019-06-01T03:28:50.985Z,10.50
2019-06-01T03:30:55.025Z,11.47
2019-06-01T03:32:59.034Z,13.67
2019-06-01T03:35:02.965Z,11.50
2019-06-01T03:37:07.145Z,13.63
2019-06-01T03:39:12.870Z,13.47
2019-06-01T03:41:16.842Z,13.37
2019-06-01T03:43:21.328Z,13.40
2019-06-01T03:45:25.211Z,15.20
2019-06-01T03:47:29.145Z,13.13
2019-06-01T03:49:33.046Z,12.87
2019-06-01T03:51:36.928Z,14.37
2019-06-01T03:53:40.866Z,16.50
2019-06-01T03:55:44.765Z,16.93
2019-06-01T03:57:48.706Z,12.63
2019-06-01T03:59:52.607Z,15.13
2019-06-01T04:01:56.528Z,16.60
2019-06-01T04:04:00.963Z,14.77
2019-06-01T04:06:05.339Z,16.80
2019-06-01T04:08:09.697Z,14.77
2019-06-01T04:10:13.755Z,13.37
2019-06-01T04:12:17.651Z,14.57
2019-06-01T04:14:21.597Z,16.30
2019-06-01T04:16:25.499Z,14.60
2019-06-01T04:18:29.404Z,9.70
2019-06-01T04:20:33.335Z,13.23
2019-06-01T04:22:37.234Z,16.67
2019-06-01T04:24:41.144Z,12.40
2019-06-01T04:26:45.042Z,15.93
2019-06-01T04:28:48.932Z,15.10
2019-06-01T04:30:52.898Z,15.57
2019-06-01T04:32:56.806Z,13.70
2019-06-01T04:35:00.727Z,14.47
2019-06-01T04:37:05.199Z,12.30
2019-06-01T04:39:09.508Z,14.90
2019-06-01T04:41:14.107Z,17.10
2019-06-01T04:43:18.113Z,14.57
2019-06-01T04:45:22.032Z,14.63
2019-06-01T04:47:25.953Z,14.77
2019-06-01T04:49:29.858Z,16.93
2019-06-01T04:51:33.750Z,17.93
2019-06-01T04:53:37.709Z,15.50
2019-06-01T04:55:41.607Z,18.37
2019-06-01T04:57:45.486Z,17.87
2019-06-01T04:59:49.404Z,15.77
2019-06-01T05:01:53.351Z,17.17
2019-06-01T05:03:57.317Z,20.20
2019-06-01T05:06:01.201Z,17.63
2019-06-01T05:08:05.403Z,12.80
2019-06-01T05:10:09.527Z,21.97
2019-06-01T05:12:13.659Z,16.57
2019-06-01T05:14:17.696Z,16.53
2019-06-01T05:16:21.854Z,17.00
2019-06-01T05:18:26.181Z,15.80
2019-06-01T05:20:30.638Z,15.63
2019-06-01T05:22:34.727Z,18.73
2019-06-01T05:24:38.826Z,17.67
2019-06-01T05:26:42.916Z,16.90
2019-06-01T05:28:47.141Z,19.00
2019-06-01T05:30:51.469Z,20.10
2019-06-01T05:32:55.409Z,18.63
2019-06-01T05:34:59.289Z,19.57
2019-06-01T05:37:03.214Z,17.23
2019-06-01T05:39:08.618Z,18.90
2019-06-01T05:41:13.252Z,17.43
2019-06-01T05:43:20.868Z,19.73
2019-06-01T05:45:23.375Z,19.03
2019-06-01T05:47:27.377Z,15.73
2019-06-01T05:49:31.269Z,15.80
2019-06-01T05:51:35.177Z,16.47
2019-06-01T05:53:39.104Z,13.67
2019-06-01T05:55:43.013Z,21.03
2019-06-01T05:57:46.932Z,14.27
2019-06-01T05:59:50.841Z,17.07
2019-06-01T06:01:54.761Z,18.43
2019-06-01T06:03:58.692Z,16.80
2019-06-01T06:06:02.611Z,14.70
2019-06-01T06:08:06.981Z,18.10
2019-06-01T06:10:11.875Z,15.60
2019-06-01T06:12:17.170Z,15.50
2019-06-01T06:14:22.587Z,13.87
2019-06-01T06:16:26.633Z,13.80
2019-06-01T06:18:30.561Z,12.10
2019-06-01T06:20:34.633Z,14.60
2019-06-01T06:22:41.101Z,12.57
2019-06-01T06:24:44.049Z,13.00
2019-06-01T06:26:48.099Z,16.40
2019-06-01T06:28:52.392Z,14.03
2019-06-01T06:30:56.284Z,12.00
2019-06-01T06:33:00.208Z,14.17
2019-06-01T06:35:05.631Z,15.03
2019-06-01T06:37:09.568Z,14.10
2019-06-01T06:39:13.647Z,17.63
2019-06-01T06:41:18.223Z,12.13
2019-06-01T06:43:29.494Z,14.13
2019-06-01T06:45:27.773Z,13.93
2019-06-01T06:47:31.689Z,13.30
2019-06-01T06:49:35.597Z,12.87
2019-06-01T06:51:39.521Z,12.40
2019-06-01T06:53:43.502Z,15.63
2019-06-01T06:55:47.396Z,14.70
2019-06-01T06:57:51.332Z,13.27
2019-06-01T06:59:55.326Z,10.97
2019-06-01T07:01:59.357Z,11.67
2019-06-01T07:04:12.027Z,14.83
2019-06-01T07:06:08.865Z,13.93
2019-06-01T07:08:12.808Z,11.30
2019-06-01T07:10:17.881Z,12.90
2019-06-01T07:12:21.918Z,12.83
2019-06-01T07:14:25.824Z,13.00
2019-06-01T07:16:29.717Z,12.30
2019-06-01T07:18:33.653Z,11.20
2019-06-01T07:20:37.554Z,11.30
2019-06-01T07:22:41.444Z,12.27
2019-06-01T07:24:45.385Z,14.73
2019-06-01T07:26:49.290Z,14.57
2019-06-01T07:28:53.174Z,11.30
2019-06-01T07:30:57.108Z,15.07
2019-06-01T07:33:00.981Z,12.93
2019-06-01T07:35:06.997Z,12.80
2019-06-01T07:37:10.912Z,11.27
2019-06-01T07:39:14.820Z,11.17
2019-06-01T07:41:18.751Z,13.03
2019-06-01T07:43:22.665Z,13.80
2019-06-01T07:45:26.942Z,14.30
2019-06-01T07:47:30.905Z,11.87
2019-06-01T07:49:34.832Z,14.17
2019-06-01T07:51:38.724Z,13.03
2019-06-01T07:53:42.633Z,13.37
2019-06-01T07:55:46.523Z,11.17
2019-06-01T07:57:50.459Z,12.93
2019-06-01T07:59:54.359Z,13.10
2019-06-01T08:01:58.281Z,10.90
2019-06-01T08:04:02.199Z,12.93
2019-06-01T08:06:06.094Z,11.80
2019-06-01T08:08:10.017Z,16.30
2019-06-01T08:10:14.102Z,11.27
2019-06-01T08:12:18.017Z,14.07
2019-06-01T08:14:22.516Z,11.07
2019-06-01T08:16:27.619Z,13.67
2019-06-01T08:18:32.271Z,10.83
2019-06-01T08:20:36.216Z,10.33
2019-06-01T08:22:40.108Z,11.40
2019-06-01T08:24:44.155Z,10.27
2019-06-01T08:26:48.057Z,12.27
2019-06-01T08:28:51.951Z,12.13
2019-06-01T08:30:55.900Z,11.60
2019-06-01T08:33:00.518Z,8.27
2019-06-01T08:35:08.974Z,13.27
2019-06-01T08:37:10.652Z,9.80
2019-06-01T08:39:14.546Z,12.33
2019-06-01T08:41:18.503Z,9.87
2019-06-01T08:43:23.509Z,9.87
2019-06-01T08:45:27.735Z,11.37
2019-06-01T08:47:31.986Z,12.43
2019-06-01T08:49:35.948Z,11.47
2019-06-01T08:51:41.739Z,12.87
2019-06-01T08:53:46.008Z,12.63
2019-06-01T08:55:49.941Z,9.10
2019-06-01T08:57:53.875Z,10.97
2019-06-01T08:59:57.773Z,9.10
2019-06-01T09:02:03.575Z,12.43
2019-06-01T09:04:11.700Z,12.20
2019-06-01T09:06:15.562Z,11.97
2019-06-01T09:08:23.625Z,11.97
2019-06-01T09:10:27.417Z,10.43
2019-06-01T09:12:31.477Z,8.27
2019-06-01T09:14:35.623Z,9.23
2019-06-01T09:16:39.610Z,10.77
2019-06-01T09:18:43.530Z,8.80
2019-06-01T09:20:47.408Z,9.90
2019-06-01T09:22:52.582Z,12.40
2019-06-01T09:24:56.779Z,11.57
2019-06-01T09:27:00.971Z,11.07
2019-06-01T09:29:05.496Z,8.27
2019-06-01T09:31:09.392Z,9.43
2019-06-01T09:33:13.296Z,12.70
2019-06-01T09:35:18.406Z,9.33
2019-06-01T09:37:22.394Z,12.00
2019-06-01T09:39:26.678Z,9.93
2019-06-01T09:41:32.619Z,10.87
2019-06-01T09:43:37.196Z,10.93
2019-06-01T09:45:41.164Z,9.67
2019-06-01T09:47:45.328Z,11.00
2019-06-01T09:49:49.604Z,9.37
2019-06-01T09:51:53.515Z,8.50
2019-06-01T09:53:57.417Z,9.77
2019-06-01T09:56:01.407Z,8.60
2019-06-01T09:58:05.288Z,9.67
2019-06-01T10:00:10.729Z,11.67
2019-06-01T10:02:14.612Z,9.37
2019-06-01T10:04:18.532Z,10.17
2019-06-01T10:06:22.430Z,10.93
2019-06-01T10:08:26.304Z,7.93
2019-06-01T10:10:30.230Z,8.87
2019-06-01T10:12:34.120Z,9.07
2019-06-01T10:14:39.268Z,8.97
2019-06-01T10:16:43.357Z,8.53
2019-06-01T10:18:47.277Z,6.13
2019-06-01T10:20:51.169Z,6.43
2019-06-01T10:22:55.057Z,10.50
2019-06-01T10:24:59.085Z,10.20
2019-06-01T10:27:03.029Z,8.47
2019-06-01T10:29:06.967Z,8.07
2019-06-01T10:31:10.930Z,8.27
2019-06-01T10:33:14.795Z,7.10
2019-06-01T10:35:18.749Z,8.77
2019-06-01T10:37:22.627Z,6.80
2019-06-01T10:39:26.510Z,6.07
2019-06-01T10:41:31.238Z,7.10
2019-06-01T10:43:35.563Z,8.90
2019-06-01T10:45:39.926Z,10.00
2019-06-01T10:47:43.872Z,9.57
2019-06-01T10:49:47.748Z,10.43
2019-06-01T10:51:52.283Z,7.40
2019-06-01T10:53:57.133Z,8.40
2019-06-01T10:56:01.145Z,10.27
2019-06-01T10:58:05.789Z,12.70
2019-06-01T11:00:12.852Z,7.97
2019-06-01T11:02:16.765Z,10.37
2019-06-01T11:04:20.766Z,9.83
2019-06-01T11:06:36.802Z,9.03
2019-06-01T11:08:30.357Z,8.27
2019-06-01T11:10:34.815Z,8.37
2019-06-01T11:12:39.217Z,7.13
2019-06-01T11:14:43.473Z,7.23
2019-06-01T11:16:54.838Z,7.70
2019-06-01T11:18:53.046Z,7.13
2019-06-01T11:20:57.104Z,5.90
2019-06-01T11:23:00.984Z,10.10
2019-06-01T11:25:06.017Z,6.67
2019-06-01T11:27:09.940Z,6.80
2019-06-01T11:29:13.832Z,8.00
2019-06-01T11:31:17.788Z,7.47
2019-06-01T11:33:21.705Z,6.60
2019-06-01T11:35:25.685Z,6.67
2019-06-01T11:37:29.551Z,9.13
2019-06-01T11:39:34.243Z,6.30
2019-06-01T11:41:40.623Z,8.93
2019-06-01T11:43:46.078Z,8.13
2019-06-01T11:45:50.354Z,7.10
2019-06-01T11:47:54.278Z,7.40
2019-06-01T11:49:58.157Z,6.03
2019-06-01T11:52:02.110Z,6.77
2019-06-01T11:54:06.010Z,6.57
2019-06-01T11:56:10.065Z,8.77
2019-06-01T11:58:13.990Z,7.27
2019-06-01T12:00:18.720Z,5.03
2019-06-01T12:02:22.719Z,7.07
2019-06-01T12:04:26.668Z,5.67
2019-06-01T12:06:30.609Z,5.10
2019-06-01T12:08:35.851Z,5.97
2019-06-01T12:10:41.635Z,8.13
2019-06-01T12:12:46.502Z,10.53
2019-06-01T12:14:50.540Z,7.43
2019-06-01T12:16:56.009Z,5.60
2019-06-01T12:19:00.078Z,5.10
2019-06-01T12:21:04.629Z,7.77
2019-06-01T12:23:16.231Z,5.10
2019-06-01T12:25:20.735Z,7.03
2019-06-01T12:27:24.628Z,7.67
2019-06-01T12:29:28.560Z,5.47
2019-06-01T12:31:32.463Z,5.87
2019-06-01T12:33:37.862Z,7.07
2019-06-01T12:35:42.056Z,5.93
2019-06-01T12:38:06.031Z,6.03
2019-06-01T12:39:56.298Z,6.20
2019-06-01T12:42:00.234Z,7.80
2019-06-01T12:44:15.023Z,7.07
2019-06-01T12:46:19.333Z,4.90
2019-06-01T12:48:23.204Z,5.77
2019-06-01T12:50:27.423Z,7.40
2019-06-01T12:52:31.356Z,3.87
2019-06-01T12:54:35.240Z,6.80
2019-06-01T12:56:39.121Z,7.33
2019-06-01T12:58:43.845Z,4.07
2019-06-01T13:00:48.371Z,6.40
2019-06-01T13:03:03.638Z,4.00
2019-06-01T13:04:58.112Z,7.13
2019-06-01T13:07:02.145Z,3.80
2019-06-01T13:09:08.808Z,5.40
2019-06-01T13:11:12.781Z,3.40
2019-06-01T13:13:16.742Z,3.47
2019-06-01T13:15:20.853Z,4.73
2019-06-01T13:17:26.167Z,5.10
2019-06-01T13:19:30.094Z,5.13
2019-06-01T13:21:34.017Z,3.50
2019-06-01T13:23:37.904Z,4.92
2019-06-01T13:25:41.833Z,7.40
2019-06-01T13:27:46.445Z,2.43
2019-06-01T13:29:50.518Z,4.30
2019-06-01T13:31:54.416Z,4.57
2019-06-01T13:33:58.300Z,4.70
2019-06-01T13:36:02.209Z,2.87
2019-06-01T13:38:12.368Z,2.43
2019-06-01T13:40:11.968Z,3.90
2019-06-01T13:42:15.861Z,3.63
2019-06-01T13:44:19.725Z,4.57
2019-06-01T13:46:23.647Z,3.08
2019-06-01T13:48:27.518Z,3.45
2019-06-01T13:50:31.402Z,5.03
2019-06-01T13:52:35.312Z,4.40
2019-06-01T13:54:40.266Z,4.97
2019-06-01T13:56:44.738Z,4.50
2019-06-01T13:58:48.764Z,5.35
2019-06-01T14:00:53.242Z,2.73
2019-06-01T14:02:57.700Z,4.90
2019-06-01T14:05:01.785Z,4.87
2019-06-01T14:07:05.676Z,3.40
2019-06-01T14:09:09.581Z,4.47
2019-06-01T14:11:13.504Z,4.50
2019-06-01T14:13:17.432Z,7.65
2019-06-01T14:15:21.300Z,6.17
2019-06-01T14:17:25.201Z,6.50
2019-06-01T14:19:29.111Z,4.28
2019-06-01T14:21:33.005Z,6.28
2019-06-01T14:23:36.905Z,6.17
2019-06-01T14:25:45.921Z,5.28
2019-06-01T14:27:52.154Z,6.83
2019-06-01T14:29:56.561Z,5.28
2019-06-01T14:32:00.523Z,3.02
2019-06-01T14:34:04.743Z,4.65
2019-06-01T14:40:33.584Z,4.47
2019-06-01T14:42:37.574Z,6.47
2019-06-01T14:44:41.544Z,4.83
2019-06-01T14:46:55.133Z,7.25
2019-06-01T14:48:51.576Z,4.78
2019-06-01T14:50:55.926Z,6.72
2019-06-01T14:52:59.985Z,3.42
2019-06-01T14:55:05.305Z,4.25
2019-06-01T14:57:09.324Z,4.95
2019-06-01T14:59:13.425Z,6.75
2019-06-01T15:01:31.420Z,4.37
2019-06-01T15:03:22.975Z,4.53
2019-06-01T15:05:27.040Z,6.83
2019-06-01T15:07:31.087Z,7.15
2019-06-01T15:09:35.079Z,4.30
2019-06-01T15:11:39.127Z,5.58
2019-06-01T15:13:43.144Z,4.92
2019-06-01T15:15:47.064Z,5.15
2019-06-01T15:17:51.775Z,6.45
2019-06-01T15:19:56.201Z,3.45
2019-06-01T15:22:00.405Z,3.35
2019-06-01T15:24:04.884Z,8.73
2019-06-01T15:26:09.007Z,8.65
2019-06-01T15:28:13.055Z,3.30
2019-06-01T15:30:17.574Z,4.43
2019-06-01T15:32:21.555Z,7.67
2019-06-01T15:34:25.544Z,7.22
2019-06-01T15:36:29.594Z,7.90
2019-06-01T15:38:33.575Z,5.75
2019-06-01T15:40:37.625Z,6.10
2019-06-01T15:42:41.736Z,6.95
2019-06-01T15:44:45.845Z,5.15
2019-06-01T15:46:49.874Z,5.60
2019-06-01T15:48:54.054Z,5.47
2019-06-01T15:51:02.248Z,4.42
2019-06-01T15:53:03.592Z,5.95
2019-06-01T15:55:08.864Z,8.15
2019-06-01T15:57:12.824Z,5.28
2019-06-01T15:59:17.044Z,5.08
2019-06-01T16:01:21.194Z,4.45
2019-06-01T16:03:25.154Z,5.83
2019-06-01T16:05:29.274Z,5.20
2019-06-01T16:07:33.343Z,5.50
2019-06-01T16:09:42.484Z,7.08
2019-06-01T16:11:43.025Z,8.38
2019-06-01T16:13:47.165Z,6.80
2019-06-01T16:15:51.224Z,6.40
2019-06-01T16:17:55.828Z,4.40
2019-06-01T16:20:00.142Z,7.17
2019-06-01T16:22:04.990Z,7.53
2019-06-01T16:24:08.979Z,6.72
2019-06-01T16:26:16.386Z,7.05
2019-06-01T16:28:18.655Z,6.62
2019-06-01T16:30:22.644Z,10.57
2019-06-01T16:32:26.865Z,8.13
2019-06-01T16:34:30.827Z,6.47
2019-06-01T16:36:34.745Z,10.13
2019-06-01T16:38:38.834Z,10.00
2019-06-01T16:40:43.335Z,7.50
2019-06-01T16:42:47.405Z,7.42
2019-06-01T16:44:51.454Z,6.50
2019-06-01T16:46:55.582Z,8.00
2019-06-01T16:48:59.707Z,6.05
2019-06-01T16:51:04.142Z,10.10
2019-06-01T16:53:08.394Z,6.85
2019-06-01T16:55:13.224Z,9.38
2019-06-01T16:57:17.214Z,9.13
2019-06-01T16:59:21.242Z,8.73
2019-06-01T17:01:25.464Z,5.72
2019-06-01T17:03:29.506Z,6.92
2019-06-01T17:05:33.474Z,7.22
2019-06-01T17:07:37.424Z,7.05
2019-06-01T17:09:41.504Z,7.42
2019-06-01T17:11:45.494Z,7.75
2019-06-01T17:13:49.454Z,11.35
2019-06-01T17:15:53.546Z,8.45
2019-06-01T17:18:02.659Z,6.72
2019-06-01T17:20:03.403Z,5.97
2019-06-01T17:22:07.747Z,7.45
2019-06-01T17:24:11.784Z,9.53
2019-06-01T17:26:15.785Z,6.15
2019-06-01T17:28:19.934Z,6.33
2019-06-01T17:30:23.995Z,9.13
2019-06-01T17:32:27.985Z,6.05
2019-06-01T17:34:32.015Z,7.80
2019-06-01T17:36:35.971Z,6.95
2019-06-01T17:38:40.034Z,9.45
2019-06-01T17:40:44.228Z,7.78
2019-06-01T17:42:48.165Z,7.45
2019-06-01T17:44:52.124Z,6.17
2019-06-01T17:46:56.274Z,7.83
2019-06-01T17:49:00.362Z,7.67
2019-06-01T17:51:04.790Z,5.45
2019-06-01T17:53:08.961Z,7.40
2019-06-01T17:55:30.084Z,10.00
2019-06-01T17:57:34.172Z,7.43
2019-06-01T17:59:38.321Z,7.30
2019-06-01T18:01:42.799Z,5.97
2019-06-01T18:03:47.032Z,6.90
2019-06-01T18:05:51.128Z,6.97
2019-06-01T18:07:55.164Z,6.62
2019-06-01T18:09:59.147Z,4.93
2019-06-01T18:12:03.927Z,6.33
2019-06-01T18:14:08.616Z,8.00
2019-06-01T18:16:13.169Z,9.00
2019-06-01T18:18:17.374Z,7.90
2019-06-01T18:20:21.467Z,7.40
2019-06-01T18:22:25.554Z,6.70
2019-06-01T18:24:29.714Z,6.40
2019-06-01T18:26:33.684Z,5.57
2019-06-01T18:28:37.675Z,6.30
2019-06-01T18:30:41.862Z,8.33
2019-06-01T18:32:45.934Z,8.13
2019-06-01T18:34:50.014Z,8.50
2019-06-01T18:36:54.134Z,7.17
2019-06-01T18:38:58.104Z,5.83
2019-06-01T18:41:10.731Z,8.30
2019-06-01T18:43:11.941Z,7.87
2019-06-01T18:45:16.501Z,7.40
2019-06-01T18:47:31.857Z,7.87
2019-06-01T18:49:26.404Z,5.87
2019-06-01T18:51:30.346Z,8.47
2019-06-01T18:53:34.317Z,5.87
2019-06-01T18:55:38.596Z,6.43
2019-06-01T18:57:44.478Z,4.67
2019-06-01T18:59:48.977Z,6.90
2019-06-01T19:01:53.394Z,5.77
2019-06-01T19:03:58.387Z,6.50
2019-06-01T19:06:05.129Z,6.83
2019-06-01T19:08:11.636Z,5.93
2019-06-01T19:10:17.646Z,6.67
2019-06-01T19:12:24.505Z,7.60
2019-06-01T19:14:30.723Z,4.67
2019-06-01T19:16:37.356Z,5.63
2019-06-01T19:18:43.544Z,4.30
2019-06-01T19:20:49.622Z,4.67
2019-06-01T19:22:57.941Z,6.90
2019-06-01T19:25:04.561Z,6.17
2019-06-01T19:27:10.784Z,4.00
2019-06-01T19:29:17.004Z,5.77
2019-06-01T19:31:23.580Z,8.60
2019-06-01T19:33:29.360Z,6.90
2019-06-01T19:35:35.635Z,5.53
2019-06-01T19:37:43.665Z,6.90
2019-06-01T19:39:50.128Z,6.23
2019-06-01T19:41:56.878Z,8.20
2019-06-01T19:44:03.761Z,6.37
2019-06-01T19:46:09.710Z,6.30
2019-06-01T19:48:14.797Z,6.77
2019-06-01T19:50:20.302Z,5.33
2019-06-01T19:52:24.771Z,4.47
2019-06-01T19:54:28.861Z,5.53
2019-06-01T19:56:32.905Z,5.50
2019-06-01T19:58:37.096Z,5.73
2019-06-01T20:00:41.246Z,5.03
2019-06-01T20:02:45.424Z,9.00
2019-06-01T20:04:50.457Z,6.77
2019-06-01T20:06:55.391Z,7.67
2019-06-01T20:09:00.058Z,5.73
2019-06-01T20:11:04.547Z,4.77
2019-06-01T20:13:09.450Z,6.87
2019-06-01T20:15:15.499Z,6.30
2019-06-01T20:17:25.886Z,8.20
2019-06-01T20:19:28.527Z,4.10
2019-06-01T20:21:33.169Z,4.80
2019-06-01T20:23:38.080Z,7.63
2019-06-01T20:25:44.675Z,5.33
2019-06-01T20:27:49.529Z,5.87
2019-06-01T20:29:54.389Z,5.40
2019-06-01T20:31:58.794Z,5.77
2019-06-01T20:34:03.749Z,6.77
2019-06-01T20:36:08.656Z,5.30
2019-06-01T20:38:14.286Z,5.87
2019-06-01T20:40:18.835Z,8.27
2019-06-01T20:42:32.083Z,5.37
2019-06-01T20:44:32.179Z,7.03
2019-06-01T20:46:37.052Z,4.03
2019-06-01T20:48:43.110Z,5.43
2019-06-01T20:50:48.396Z,7.63
2019-06-01T20:52:53.359Z,9.30
2019-06-01T20:54:58.268Z,6.13
2019-06-01T20:57:02.512Z,7.40
2019-06-01T20:59:06.824Z,7.17
2019-06-01T21:01:10.981Z,4.97
2019-06-01T21:03:15.638Z,6.03
2019-06-01T21:05:19.985Z,5.60
2019-06-01T21:07:24.266Z,5.40
2019-06-01T21:09:28.303Z,6.70
2019-06-01T21:11:32.301Z,7.60
2019-06-01T21:13:36.453Z,7.37
2019-06-01T21:15:40.464Z,6.40
2019-06-01T21:17:44.624Z,6.00
2019-06-01T21:19:48.626Z,6.50
2019-06-01T21:21:52.543Z,6.97
2019-06-01T21:23:56.527Z,8.80
2019-06-01T21:26:00.600Z,7.00
2019-06-01T21:28:04.526Z,7.43
2019-06-01T21:30:09.185Z,9.57
2019-06-01T21:32:13.212Z,7.87
2019-06-01T21:34:17.203Z,8.13
2019-06-01T21:36:21.539Z,8.40
2019-06-01T21:38:25.776Z,8.93
2019-06-01T21:40:29.784Z,7.47
2019-06-01T21:42:38.174Z,7.80
2019-06-01T21:44:39.424Z,7.93
2019-06-01T21:46:43.284Z,8.57
2019-06-01T21:48:47.204Z,10.73
2019-06-01T21:50:51.086Z,10.80
2019-06-01T21:52:55.037Z,8.00
2019-06-01T21:54:59.061Z,9.60
2019-06-01T21:57:03.061Z,6.87
2019-06-01T21:59:07.043Z,5.90
2019-06-01T22:01:11.051Z,8.50
2019-06-01T22:03:15.230Z,8.80
2019-06-01T22:05:19.405Z,6.90
2019-06-01T22:07:23.403Z,9.87
2019-06-01T22:09:27.508Z,5.93
2019-06-01T22:11:31.564Z,9.47
2019-06-01T22:13:35.484Z,7.40
2019-06-01T22:15:39.444Z,5.73
2019-06-01T22:17:43.514Z,8.30
2019-06-01T22:19:47.464Z,5.80
2019-06-01T22:21:51.444Z,6.50
2019-06-01T22:23:55.372Z,9.03
2019-06-01T22:25:59.278Z,6.87
2019-06-01T22:28:03.395Z,6.00
2019-06-01T22:30:08.082Z,8.27
2019-06-01T22:32:12.004Z,7.57
2019-06-01T22:34:16.004Z,7.93
2019-06-01T22:36:20.484Z,6.83
2019-06-01T22:38:25.697Z,7.63
2019-06-01T22:40:29.833Z,5.67
2019-06-01T22:42:33.914Z,6.40
2019-06-01T22:44:37.875Z,8.10
2019-06-01T22:46:41.984Z,5.93
2019-06-01T22:48:45.944Z,7.63
2019-06-01T22:50:49.989Z,7.53
2019-06-01T22:52:54.145Z,6.37
2019-06-01T22:54:58.064Z,5.73
2019-06-01T22:57:01.969Z,7.70
2019-06-01T22:59:06.029Z,7.47
2019-06-01T23:01:10.054Z,6.43
2019-06-01T23:03:14.005Z,6.50
2019-06-01T23:05:18.064Z,6.70
2019-06-01T23:07:23.013Z,5.70
2019-06-01T23:09:27.426Z,7.07
2019-06-01T23:11:31.798Z,7.77
2019-06-01T23:13:49.896Z,8.43
2019-06-01T23:15:41.346Z,7.10
2019-06-01T23:17:45.375Z,11.70
2019-06-01T23:19:49.415Z,9.53
2019-06-01T23:21:53.294Z,7.37
2019-06-01T23:23:57.454Z,8.60
2019-06-01T23:26:01.454Z,7.60
2019-06-01T23:28:05.523Z,7.27
2019-06-01T23:30:09.664Z,6.97
2019-06-01T23:32:13.554Z,7.83
2019-06-01T23:34:17.554Z,6.53
2019-06-01T23:36:22.485Z,6.67
2019-06-01T23:38:26.641Z,6.00
2019-06-01T23:40:30.837Z,6.23
2019-06-01T23:42:34.874Z,7.97
2019-06-01T23:44:38.825Z,6.20
2019-06-01T23:46:42.634Z,7.00
2019-06-01T23:48:46.684Z,5.23
2019-06-01T23:50:50.754Z,6.93
2019-06-01T23:52:54.664Z,5.40
2019-06-01T23:54:58.736Z,6.47
2019-06-01T23:57:02.683Z,6.33
2019-06-01T23:59:06.674Z,7.53
